Terminal Aerodrome Forecast
Issued by NWS Shreveport, LA

Home | Current Version | Previous Version | Text Only | Print | Product List | Glossary On
Versions: 1 2 3 4 5 6 7 8 9 10 11 12 13
000
FTUS44 KSHV 180500
TAFTYR
TAF
KTYR 180520Z 1806/1906 06004KT P6SM SCT060 BKN090
     FM181500 02006KT P6SM FEW060
     FM181800 02008KT P6SM SCT040
     FM190100 VRB03KT P6SM SKC=

USA.gov is the U.S. government's official web portal to all federal, state and local government web resources and services.